sensor_id;sensor_type;location;lat;lon;timestamp;temperature;humidity
39525;DHT22;25203;50.754;6.978;2023-12-20T00:00:25;7.10;99.90
39525;DHT22;25203;50.754;6.978;2023-12-20T00:02:25;7.10;99.90
39525;DHT22;25203;50.754;6.978;2023-12-20T00:04:26;7.10;99.90
39525;DHT22;25203;50.754;6.978;2023-12-20T00:06:26;7.10;99.90
39525;DHT22;25203;50.754;6.978;2023-12-20T00:08:27;7.10;99.90
39525;DHT22;25203;50.754;6.978;2023-12-20T00:10:28;7.10;99.90
39525;DHT22;25203;50.754;6.978;2023-12-20T00:12:28;7.10;99.90
39525;DHT22;25203;50.754;6.978;2023-12-20T00:14:35;7.10;99.90
39525;DHT22;25203;50.754;6.978;2023-12-20T00:16:36;7.00;99.90
39525;DHT22;25203;50.754;6.978;2023-12-20T00:18:36;7.00;99.90
39525;DHT22;25203;50.754;6.978;2023-12-20T00:20:37;7.10;99.90
39525;DHT22;25203;50.754;6.978;2023-12-20T00:22:37;7.10;99.90
39525;DHT22;25203;50.754;6.978;2023-12-20T00:24:38;7.00;99.90
39525;DHT22;25203;50.754;6.978;2023-12-20T00:26:39;7.10;99.90
39525;DHT22;25203;50.754;6.978;2023-12-20T00:28:39;7.10;99.90
39525;DHT22;25203;50.754;6.978;2023-12-20T00:30:40;7.10;99.90
39525;DHT22;25203;50.754;6.978;2023-12-20T00:32:40;7.10;99.90
39525;DHT22;25203;50.754;6.978;2023-12-20T00:34:46;7.10;99.90
39525;DHT22;25203;50.754;6.978;2023-12-20T00:36:47;7.10;99.90
39525;DHT22;25203;50.754;6.978;2023-12-20T00:38:47;7.10;99.90
39525;DHT22;25203;50.754;6.978;2023-12-20T00:40:48;7.10;99.90
39525;DHT22;25203;50.754;6.978;2023-12-20T00:42:50;7.10;99.90
39525;DHT22;25203;50.754;6.978;2023-12-20T00:44:50;7.10;99.90
39525;DHT22;25203;50.754;6.978;2023-12-20T00:46:51;7.10;99.90
39525;DHT22;25203;50.754;6.978;2023-12-20T00:48:51;7.10;99.90
39525;DHT22;25203;50.754;6.978;2023-12-20T00:50:52;7.10;99.90
39525;DHT22;25203;50.754;6.978;2023-12-20T00:52:53;7.10;99.90
39525;DHT22;25203;50.754;6.978;2023-12-20T00:54:55;7.10;99.90
39525;DHT22;25203;50.754;6.978;2023-12-20T00:56:55;7.10;99.90
39525;DHT22;25203;50.754;6.978;2023-12-20T00:58:56;7.10;99.90
39525;DHT22;25203;50.754;6.978;2023-12-20T01:00:56;7.20;99.90
39525;DHT22;25203;50.754;6.978;2023-12-20T01:02:58;7.20;99.90
39525;DHT22;25203;50.754;6.978;2023-12-20T01:04:59;7.20;99.90
39525;DHT22;25203;50.754;6.978;2023-12-20T01:06:59;7.20;99.90
39525;DHT22;25203;50.754;6.978;2023-12-20T01:09:00;7.10;99.90
39525;DHT22;25203;50.754;6.978;2023-12-20T01:11:03;7.20;99.90
39525;DHT22;25203;50.754;6.978;2023-12-20T01:13:04;7.20;99.90
39525;DHT22;25203;50.754;6.978;2023-12-20T01:15:05;7.10;99.90
39525;DHT22;25203;50.754;6.978;2023-12-20T01:17:05;7.20;99.90
39525;DHT22;25203;50.754;6.978;2023-12-20T01:19:06;7.10;99.90
39525;DHT22;25203;50.754;6.978;2023-12-20T01:21:07;7.20;99.90
39525;DHT22;25203;50.754;6.978;2023-12-20T01:23:07;7.20;99.90
39525;DHT22;25203;50.754;6.978;2023-12-20T01:25:08;7.20;99.90
39525;DHT22;25203;50.754;6.978;2023-12-20T01:27:09;7.20;99.90
39525;DHT22;25203;50.754;6.978;2023-12-20T01:29:09;7.20;99.90
39525;DHT22;25203;50.754;6.978;2023-12-20T01:31:10;7.20;99.90
39525;DHT22;25203;50.754;6.978;2023-12-20T01:33:11;7.30;99.90
39525;DHT22;25203;50.754;6.978;2023-12-20T01:35:11;7.30;99.90
39525;DHT22;25203;50.754;6.978;2023-12-20T01:37:13;7.20;99.90
39525;DHT22;25203;50.754;6.978;2023-12-20T01:39:14;7.20;99.90
39525;DHT22;25203;50.754;6.978;2023-12-20T01:41:14;7.20;99.90
39525;DHT22;25203;50.754;6.978;2023-12-20T01:43:15;7.20;99.90
39525;DHT22;25203;50.754;6.978;2023-12-20T01:45:15;7.20;99.90
39525;DHT22;25203;50.754;6.978;2023-12-20T01:47:16;7.10;99.90
39525;DHT22;25203;50.754;6.978;2023-12-20T01:49:17;7.10;99.90
39525;DHT22;25203;50.754;6.978;2023-12-20T01:51:18;7.10;99.90
39525;DHT22;25203;50.754;6.978;2023-12-20T01:53:20;7.10;99.90
39525;DHT22;25203;50.754;6.978;2023-12-20T01:55:22;7.10;99.90
39525;DHT22;25203;50.754;6.978;2023-12-20T01:57:22;7.10;99.90
39525;DHT22;25203;50.754;6.978;2023-12-20T01:59:24;7.10;99.90
39525;DHT22;25203;50.754;6.978;2023-12-20T02:01:25;7.00;99.90
39525;DHT22;25203;50.754;6.978;2023-12-20T02:03:26;7.00;99.90
39525;DHT22;25203;50.754;6.978;2023-12-20T02:05:26;7.00;99.90
39525;DHT22;25203;50.754;6.978;2023-12-20T02:07:29;7.00;99.90
39525;DHT22;25203;50.754;6.978;2023-12-20T02:09:32;6.90;99.90
39525;DHT22;25203;50.754;6.978;2023-12-20T02:11:32;6.90;99.90
39525;DHT22;25203;50.754;6.978;2023-12-20T02:13:33;6.80;99.90
39525;DHT22;25203;50.754;6.978;2023-12-20T02:15:34;6.70;99.90
39525;DHT22;25203;50.754;6.978;2023-12-20T02:17:38;6.70;99.90
39525;DHT22;25203;50.754;6.978;2023-12-20T02:19:40;6.50;99.90
39525;DHT22;25203;50.754;6.978;2023-12-20T02:21:40;6.40;99.90
39525;DHT22;25203;50.754;6.978;2023-12-20T02:23:41;6.30;99.90
39525;DHT22;25203;50.754;6.978;2023-12-20T02:25:41;6.20;99.90
39525;DHT22;25203;50.754;6.978;2023-12-20T02:27:42;6.10;99.90
39525;DHT22;25203;50.754;6.978;2023-12-20T02:29:43;6.00;99.90
39525;DHT22;25203;50.754;6.978;2023-12-20T02:31:43;6.00;99.90
39525;DHT22;25203;50.754;6.978;2023-12-20T02:33:44;5.90;99.90
39525;DHT22;25203;50.754;6.978;2023-12-20T02:35:45;5.80;99.90
39525;DHT22;25203;50.754;6.978;2023-12-20T02:37:45;5.80;99.90
39525;DHT22;25203;50.754;6.978;2023-12-20T02:39:46;5.70;99.90
39525;DHT22;25203;50.754;6.978;2023-12-20T02:41:46;5.70;99.90
39525;DHT22;25203;50.754;6.978;2023-12-20T02:43:47;5.60;99.90
39525;DHT22;25203;50.754;6.978;2023-12-20T02:45:48;5.50;99.90
39525;DHT22;25203;50.754;6.978;2023-12-20T02:47:49;5.50;99.90
39525;DHT22;25203;50.754;6.978;2023-12-20T02:49:49;5.50;99.90
39525;DHT22;25203;50.754;6.978;2023-12-20T02:51:50;5.50;99.90
39525;DHT22;25203;50.754;6.978;2023-12-20T02:53:50;5.60;99.90
39525;DHT22;25203;50.754;6.978;2023-12-20T02:55:51;5.60;99.90
39525;DHT22;25203;50.754;6.978;2023-12-20T02:57:51;5.60;99.90
39525;DHT22;25203;50.754;6.978;2023-12-20T02:59:52;5.60;99.90
39525;DHT22;25203;50.754;6.978;2023-12-20T03:01:53;5.60;99.90
39525;DHT22;25203;50.754;6.978;2023-12-20T03:03:53;5.60;99.90
39525;DHT22;25203;50.754;6.978;2023-12-20T03:05:54;5.60;99.90
39525;DHT22;25203;50.754;6.978;2023-12-20T03:07:54;5.60;99.90
39525;DHT22;25203;50.754;6.978;2023-12-20T03:09:55;5.70;99.90
39525;DHT22;25203;50.754;6.978;2023-12-20T03:11:55;5.70;99.90
39525;DHT22;25203;50.754;6.978;2023-12-20T03:13:57;5.80;99.90
39525;DHT22;25203;50.754;6.978;2023-12-20T03:15:57;5.80;99.90
39525;DHT22;25203;50.754;6.978;2023-12-20T03:17:58;5.80;99.90
39525;DHT22;25203;50.754;6.978;2023-12-20T03:19:59;5.80;99.90
39525;DHT22;25203;50.754;6.978;2023-12-20T03:22:00;5.80;99.90
39525;DHT22;25203;50.754;6.978;2023-12-20T03:24:01;5.80;99.90
39525;DHT22;25203;50.754;6.978;2023-12-20T03:26:02;5.80;99.90
39525;DHT22;25203;50.754;6.978;2023-12-20T03:28:03;5.90;99.90
39525;DHT22;25203;50.754;6.978;2023-12-20T03:30:04;5.90;99.90
39525;DHT22;25203;50.754;6.978;2023-12-20T03:32:05;5.90;99.90
39525;DHT22;25203;50.754;6.978;2023-12-20T03:34:06;5.90;99.90
39525;DHT22;25203;50.754;6.978;2023-12-20T03:36:06;6.00;99.90
39525;DHT22;25203;50.754;6.978;2023-12-20T03:38:07;6.00;99.90
39525;DHT22;25203;50.754;6.978;2023-12-20T03:40:08;6.00;99.90
39525;DHT22;25203;50.754;6.978;2023-12-20T03:42:09;6.10;99.90
39525;DHT22;25203;50.754;6.978;2023-12-20T03:44:09;6.00;99.90
39525;DHT22;25203;50.754;6.978;2023-12-20T03:46:10;6.10;99.90
39525;DHT22;25203;50.754;6.978;2023-12-20T03:48:11;6.10;99.90
39525;DHT22;25203;50.754;6.978;2023-12-20T03:50:11;6.10;99.90
39525;DHT22;25203;50.754;6.978;2023-12-20T03:52:12;6.10;99.90
39525;DHT22;25203;50.754;6.978;2023-12-20T03:54:12;6.10;99.90
39525;DHT22;25203;50.754;6.978;2023-12-20T03:56:13;6.10;99.90
39525;DHT22;25203;50.754;6.978;2023-12-20T03:58:13;6.10;99.90
39525;DHT22;25203;50.754;6.978;2023-12-20T04:00:14;6.10;99.90
39525;DHT22;25203;50.754;6.978;2023-12-20T04:02:15;6.10;99.90
39525;DHT22;25203;50.754;6.978;2023-12-20T04:04:18;6.10;99.90
39525;DHT22;25203;50.754;6.978;2023-12-20T04:06:19;6.10;99.90
39525;DHT22;25203;50.754;6.978;2023-12-20T04:08:20;6.10;99.90
39525;DHT22;25203;50.754;6.978;2023-12-20T04:10:20;6.20;99.90
39525;DHT22;25203;50.754;6.978;2023-12-20T04:12:21;6.20;99.90
39525;DHT22;25203;50.754;6.978;2023-12-20T04:14:21;6.20;99.90
39525;DHT22;25203;50.754;6.978;2023-12-20T04:16:22;6.20;99.90
39525;DHT22;25203;50.754;6.978;2023-12-20T04:18:23;6.20;99.90
39525;DHT22;25203;50.754;6.978;2023-12-20T04:20:23;6.20;99.90
39525;DHT22;25203;50.754;6.978;2023-12-20T04:22:24;6.20;99.90
39525;DHT22;25203;50.754;6.978;2023-12-20T04:24:24;6.20;99.90
39525;DHT22;25203;50.754;6.978;2023-12-20T04:26:25;6.20;99.90
39525;DHT22;25203;50.754;6.978;2023-12-20T04:28:26;6.20;99.90
39525;DHT22;25203;50.754;6.978;2023-12-20T04:30:26;6.20;99.90
39525;DHT22;25203;50.754;6.978;2023-12-20T04:32:27;6.20;99.90
39525;DHT22;25203;50.754;6.978;2023-12-20T04:34:27;6.10;99.90
39525;DHT22;25203;50.754;6.978;2023-12-20T04:36:28;6.10;99.90
39525;DHT22;25203;50.754;6.978;2023-12-20T04:38:30;6.10;99.90
39525;DHT22;25203;50.754;6.978;2023-12-20T04:40:30;6.20;99.90
39525;DHT22;25203;50.754;6.978;2023-12-20T04:42:31;6.20;99.90
39525;DHT22;25203;50.754;6.978;2023-12-20T04:44:32;6.20;99.90
39525;DHT22;25203;50.754;6.978;2023-12-20T04:46:32;6.10;99.90
39525;DHT22;25203;50.754;6.978;2023-12-20T04:48:33;6.20;99.90
39525;DHT22;25203;50.754;6.978;2023-12-20T04:50:33;6.20;99.90
39525;DHT22;25203;50.754;6.978;2023-12-20T04:52:34;6.10;99.90
39525;DHT22;25203;50.754;6.978;2023-12-20T04:54:35;6.20;99.90
39525;DHT22;25203;50.754;6.978;2023-12-20T04:56:35;6.20;99.90
39525;DHT22;25203;50.754;6.978;2023-12-20T04:58:36;6.10;99.90
39525;DHT22;25203;50.754;6.978;2023-12-20T05:00:36;6.10;99.90
39525;DHT22;25203;50.754;6.978;2023-12-20T05:02:37;6.00;99.90
39525;DHT22;25203;50.754;6.978;2023-12-20T05:04:37;6.00;99.90
39525;DHT22;25203;50.754;6.978;2023-12-20T05:06:38;6.00;99.90
39525;DHT22;25203;50.754;6.978;2023-12-20T05:08:39;6.00;99.90
39525;DHT22;25203;50.754;6.978;2023-12-20T05:10:39;5.90;99.90
39525;DHT22;25203;50.754;6.978;2023-12-20T05:12:40;5.90;99.90
39525;DHT22;25203;50.754;6.978;2023-12-20T05:14:41;5.90;99.90
39525;DHT22;25203;50.754;6.978;2023-12-20T05:16:41;5.90;99.90
39525;DHT22;25203;50.754;6.978;2023-12-20T05:18:42;5.90;99.90
39525;DHT22;25203;50.754;6.978;2023-12-20T05:20:43;5.90;99.90
39525;DHT22;25203;50.754;6.978;2023-12-20T05:22:43;5.90;99.90
39525;DHT22;25203;50.754;6.978;2023-12-20T05:24:45;5.90;99.90
39525;DHT22;25203;50.754;6.978;2023-12-20T05:26:46;5.90;99.90
39525;DHT22;25203;50.754;6.978;2023-12-20T05:28:46;5.90;99.90
39525;DHT22;25203;50.754;6.978;2023-12-20T05:30:47;5.90;99.90
39525;DHT22;25203;50.754;6.978;2023-12-20T05:32:47;5.90;99.90
39525;DHT22;25203;50.754;6.978;2023-12-20T05:34:48;5.80;99.90
39525;DHT22;25203;50.754;6.978;2023-12-20T05:36:49;5.80;99.90
39525;DHT22;25203;50.754;6.978;2023-12-20T05:38:49;5.80;99.90
39525;DHT22;25203;50.754;6.978;2023-12-20T05:40:51;5.70;99.90
39525;DHT22;25203;50.754;6.978;2023-12-20T05:42:51;5.70;99.90
39525;DHT22;25203;50.754;6.978;2023-12-20T05:44:52;5.70;99.90
39525;DHT22;25203;50.754;6.978;2023-12-20T05:46:52;5.70;99.90
39525;DHT22;25203;50.754;6.978;2023-12-20T05:48:53;5.70;99.90
39525;DHT22;25203;50.754;6.978;2023-12-20T05:50:53;5.70;99.90
39525;DHT22;25203;50.754;6.978;2023-12-20T05:52:54;5.70;99.90
39525;DHT22;25203;50.754;6.978;2023-12-20T05:54:55;5.80;99.90
39525;DHT22;25203;50.754;6.978;2023-12-20T05:56:58;5.80;99.90
39525;DHT22;25203;50.754;6.978;2023-12-20T05:58:58;5.80;99.90
39525;DHT22;25203;50.754;6.978;2023-12-20T06:00:59;5.80;99.90
39525;DHT22;25203;50.754;6.978;2023-12-20T06:02:59;5.80;99.90
39525;DHT22;25203;50.754;6.978;2023-12-20T06:05:00;5.80;99.90
39525;DHT22;25203;50.754;6.978;2023-12-20T06:07:02;5.80;99.90
39525;DHT22;25203;50.754;6.978;2023-12-20T06:09:02;5.80;99.90
39525;DHT22;25203;50.754;6.978;2023-12-20T06:11:03;5.80;99.90
39525;DHT22;25203;50.754;6.978;2023-12-20T06:13:04;5.80;99.90
39525;DHT22;25203;50.754;6.978;2023-12-20T06:15:07;5.80;99.90
39525;DHT22;25203;50.754;6.978;2023-12-20T06:17:08;5.80;99.90
39525;DHT22;25203;50.754;6.978;2023-12-20T06:19:08;5.80;99.90
39525;DHT22;25203;50.754;6.978;2023-12-20T06:21:09;5.80;99.90
39525;DHT22;25203;50.754;6.978;2023-12-20T06:23:13;5.90;99.90
39525;DHT22;25203;50.754;6.978;2023-12-20T06:25:13;5.90;99.90
39525;DHT22;25203;50.754;6.978;2023-12-20T06:27:14;5.90;99.90
39525;DHT22;25203;50.754;6.978;2023-12-20T06:29:15;5.90;99.90
39525;DHT22;25203;50.754;6.978;2023-12-20T06:31:16;5.90;99.90
39525;DHT22;25203;50.754;6.978;2023-12-20T06:33:16;6.00;99.90
39525;DHT22;25203;50.754;6.978;2023-12-20T06:35:19;6.00;99.90
39525;DHT22;25203;50.754;6.978;2023-12-20T06:37:20;6.00;99.90
39525;DHT22;25203;50.754;6.978;2023-12-20T06:39:20;6.00;99.90
39525;DHT22;25203;50.754;6.978;2023-12-20T06:41:21;6.00;99.90
39525;DHT22;25203;50.754;6.978;2023-12-20T06:43:21;6.00;99.90
39525;DHT22;25203;50.754;6.978;2023-12-20T06:45:22;6.10;99.90
39525;DHT22;25203;50.754;6.978;2023-12-20T06:47:23;6.10;99.90
39525;DHT22;25203;50.754;6.978;2023-12-20T06:49:23;6.10;99.90
39525;DHT22;25203;50.754;6.978;2023-12-20T06:51:24;6.10;99.90
39525;DHT22;25203;50.754;6.978;2023-12-20T06:53:26;6.10;99.90
39525;DHT22;25203;50.754;6.978;2023-12-20T06:55:26;6.20;99.90
39525;DHT22;25203;50.754;6.978;2023-12-20T06:57:27;6.20;99.90
39525;DHT22;25203;50.754;6.978;2023-12-20T06:59:27;6.20;99.90
39525;DHT22;25203;50.754;6.978;2023-12-20T07:01:28;6.30;99.90
39525;DHT22;25203;50.754;6.978;2023-12-20T07:03:29;6.20;99.90
39525;DHT22;25203;50.754;6.978;2023-12-20T07:05:29;6.20;99.90
39525;DHT22;25203;50.754;6.978;2023-12-20T07:07:30;6.20;99.90
39525;DHT22;25203;50.754;6.978;2023-12-20T07:09:30;6.20;99.90
39525;DHT22;25203;50.754;6.978;2023-12-20T07:11:31;6.20;99.90
39525;DHT22;25203;50.754;6.978;2023-12-20T07:13:32;6.20;99.90
39525;DHT22;25203;50.754;6.978;2023-12-20T07:15:33;6.20;99.90
39525;DHT22;25203;50.754;6.978;2023-12-20T07:17:34;6.20;99.90
39525;DHT22;25203;50.754;6.978;2023-12-20T07:19:34;6.20;99.90
39525;DHT22;25203;50.754;6.978;2023-12-20T07:21:35;6.20;99.90
39525;DHT22;25203;50.754;6.978;2023-12-20T07:23:35;6.20;99.90
39525;DHT22;25203;50.754;6.978;2023-12-20T07:25:36;6.30;99.90
39525;DHT22;25203;50.754;6.978;2023-12-20T07:27:38;6.30;99.90
39525;DHT22;25203;50.754;6.978;2023-12-20T07:29:38;6.20;99.90
39525;DHT22;25203;50.754;6.978;2023-12-20T07:31:39;6.30;99.90
39525;DHT22;25203;50.754;6.978;2023-12-20T07:33:39;6.20;99.90
39525;DHT22;25203;50.754;6.978;2023-12-20T07:35:40;6.20;99.90
39525;DHT22;25203;50.754;6.978;2023-12-20T07:37:41;6.20;99.90
39525;DHT22;25203;50.754;6.978;2023-12-20T07:39:42;6.20;99.90
39525;DHT22;25203;50.754;6.978;2023-12-20T07:41:42;6.20;99.90
39525;DHT22;25203;50.754;6.978;2023-12-20T07:43:43;6.20;99.90
39525;DHT22;25203;50.754;6.978;2023-12-20T07:45:43;6.20;99.90
39525;DHT22;25203;50.754;6.978;2023-12-20T07:47:44;6.20;99.90
39525;DHT22;25203;50.754;6.978;2023-12-20T07:49:45;6.30;99.90
39525;DHT22;25203;50.754;6.978;2023-12-20T07:51:45;6.30;99.90
39525;DHT22;25203;50.754;6.978;2023-12-20T07:53:46;6.40;99.90
39525;DHT22;25203;50.754;6.978;2023-12-20T07:55:46;6.30;99.90
39525;DHT22;25203;50.754;6.978;2023-12-20T07:57:47;6.40;99.90
39525;DHT22;25203;50.754;6.978;2023-12-20T07:59:47;6.40;99.90
39525;DHT22;25203;50.754;6.978;2023-12-20T08:01:48;6.40;99.90
39525;DHT22;25203;50.754;6.978;2023-12-20T08:03:49;6.40;99.90
39525;DHT22;25203;50.754;6.978;2023-12-20T08:05:50;6.40;99.90
39525;DHT22;25203;50.754;6.978;2023-12-20T08:07:51;6.40;99.90
39525;DHT22;25203;50.754;6.978;2023-12-20T08:09:52;6.40;99.90
39525;DHT22;25203;50.754;6.978;2023-12-20T08:11:53;6.40;99.90
39525;DHT22;25203;50.754;6.978;2023-12-20T08:13:53;6.40;99.90
39525;DHT22;25203;50.754;6.978;2023-12-20T08:15:55;6.40;99.90
39525;DHT22;25203;50.754;6.978;2023-12-20T08:17:56;6.50;99.90
39525;DHT22;25203;50.754;6.978;2023-12-20T08:19:57;6.50;99.90
39525;DHT22;25203;50.754;6.978;2023-12-20T08:21:57;6.50;99.90
39525;DHT22;25203;50.754;6.978;2023-12-20T08:23:58;6.50;99.90
39525;DHT22;25203;50.754;6.978;2023-12-20T08:26:05;6.50;99.90
39525;DHT22;25203;50.754;6.978;2023-12-20T08:28:06;6.60;99.90
39525;DHT22;25203;50.754;6.978;2023-12-20T08:30:08;6.60;99.90
39525;DHT22;25203;50.754;6.978;2023-12-20T08:32:09;6.50;99.90
39525;DHT22;25203;50.754;6.978;2023-12-20T08:34:10;6.60;99.90
39525;DHT22;25203;50.754;6.978;2023-12-20T08:36:13;6.50;99.90
39525;DHT22;25203;50.754;6.978;2023-12-20T08:38:13;6.50;99.90
39525;DHT22;25203;50.754;6.978;2023-12-20T08:40:14;6.50;99.90
39525;DHT22;25203;50.754;6.978;2023-12-20T08:42:15;6.50;99.90
39525;DHT22;25203;50.754;6.978;2023-12-20T08:44:16;6.40;99.90
39525;DHT22;25203;50.754;6.978;2023-12-20T08:46:16;6.40;99.90
39525;DHT22;25203;50.754;6.978;2023-12-20T08:48:17;6.30;99.90
39525;DHT22;25203;50.754;6.978;2023-12-20T08:50:17;6.40;99.90
39525;DHT22;25203;50.754;6.978;2023-12-20T08:52:18;6.40;99.90
39525;DHT22;25203;50.754;6.978;2023-12-20T08:54:19;6.50;99.90
39525;DHT22;25203;50.754;6.978;2023-12-20T08:56:20;6.80;99.90
39525;DHT22;25203;50.754;6.978;2023-12-20T08:58:20;7.10;99.90
39525;DHT22;25203;50.754;6.978;2023-12-20T09:00:21;7.10;99.90
39525;DHT22;25203;50.754;6.978;2023-12-20T09:02:24;7.10;99.90
39525;DHT22;25203;50.754;6.978;2023-12-20T09:04:25;7.50;99.90
39525;DHT22;25203;50.754;6.978;2023-12-20T09:06:26;7.80;99.90
39525;DHT22;25203;50.754;6.978;2023-12-20T09:08:26;7.70;99.90
39525;DHT22;25203;50.754;6.978;2023-12-20T09:10:27;7.70;99.90
39525;DHT22;25203;50.754;6.978;2023-12-20T09:12:27;7.60;99.90
39525;DHT22;25203;50.754;6.978;2023-12-20T09:14:28;7.60;99.90
39525;DHT22;25203;50.754;6.978;2023-12-20T09:16:28;7.60;99.90
39525;DHT22;25203;50.754;6.978;2023-12-20T09:18:29;7.70;99.90
39525;DHT22;25203;50.754;6.978;2023-12-20T09:20:30;7.70;99.90
39525;DHT22;25203;50.754;6.978;2023-12-20T09:22:30;7.70;99.90
39525;DHT22;25203;50.754;6.978;2023-12-20T09:24:31;7.70;99.90
39525;DHT22;25203;50.754;6.978;2023-12-20T09:26:32;7.90;99.90
39525;DHT22;25203;50.754;6.978;2023-12-20T09:28:32;8.00;99.90
39525;DHT22;25203;50.754;6.978;2023-12-20T09:30:37;8.00;99.90
39525;DHT22;25203;50.754;6.978;2023-12-20T09:32:40;7.90;99.90
39525;DHT22;25203;50.754;6.978;2023-12-20T09:34:40;7.70;99.90
39525;DHT22;25203;50.754;6.978;2023-12-20T09:36:42;7.50;99.90
39525;DHT22;25203;50.754;6.978;2023-12-20T09:38:46;7.40;99.90
39525;DHT22;25203;50.754;6.978;2023-12-20T09:40:47;7.30;99.90
39525;DHT22;25203;50.754;6.978;2023-12-20T09:42:57;7.20;99.90
39525;DHT22;25203;50.754;6.978;2023-12-20T09:45:01;7.20;99.90
39525;DHT22;25203;50.754;6.978;2023-12-20T09:47:04;7.10;99.90
39525;DHT22;25203;50.754;6.978;2023-12-20T09:49:06;7.10;99.90
39525;DHT22;25203;50.754;6.978;2023-12-20T09:51:06;7.10;99.90
39525;DHT22;25203;50.754;6.978;2023-12-20T09:53:09;7.10;99.90
39525;DHT22;25203;50.754;6.978;2023-12-20T09:55:10;7.00;99.90
39525;DHT22;25203;50.754;6.978;2023-12-20T09:57:11;7.00;99.90
39525;DHT22;25203;50.754;6.978;2023-12-20T09:59:11;7.10;99.90
39525;DHT22;25203;50.754;6.978;2023-12-20T10:01:12;7.10;99.90
39525;DHT22;25203;50.754;6.978;2023-12-20T10:03:15;7.00;99.90
39525;DHT22;25203;50.754;6.978;2023-12-20T10:05:17;7.10;99.90
39525;DHT22;25203;50.754;6.978;2023-12-20T10:07:21;7.10;99.90
39525;DHT22;25203;50.754;6.978;2023-12-20T10:09:22;7.10;99.90
39525;DHT22;25203;50.754;6.978;2023-12-20T10:11:25;7.10;99.90
39525;DHT22;25203;50.754;6.978;2023-12-20T10:13:25;7.10;99.90
39525;DHT22;25203;50.754;6.978;2023-12-20T10:15:26;7.10;99.90
39525;DHT22;25203;50.754;6.978;2023-12-20T10:17:27;7.10;99.90
39525;DHT22;25203;50.754;6.978;2023-12-20T10:19:29;7.10;99.90
39525;DHT22;25203;50.754;6.978;2023-12-20T10:21:30;7.10;99.90
39525;DHT22;25203;50.754;6.978;2023-12-20T10:23:31;7.10;99.90
39525;DHT22;25203;50.754;6.978;2023-12-20T10:25:32;7.10;99.90
39525;DHT22;25203;50.754;6.978;2023-12-20T10:27:33;7.20;99.90
39525;DHT22;25203;50.754;6.978;2023-12-20T10:29:38;7.20;99.90
39525;DHT22;25203;50.754;6.978;2023-12-20T10:31:38;7.20;99.90
39525;DHT22;25203;50.754;6.978;2023-12-20T10:33:40;7.20;99.90
39525;DHT22;25203;50.754;6.978;2023-12-20T10:35:40;7.20;99.90
39525;DHT22;25203;50.754;6.978;2023-12-20T10:37:42;7.20;99.90
39525;DHT22;25203;50.754;6.978;2023-12-20T10:39:43;7.20;99.90
39525;DHT22;25203;50.754;6.978;2023-12-20T10:41:44;7.30;99.90
39525;DHT22;25203;50.754;6.978;2023-12-20T10:43:46;7.30;99.90
39525;DHT22;25203;50.754;6.978;2023-12-20T10:45:47;7.30;99.90
39525;DHT22;25203;50.754;6.978;2023-12-20T10:47:50;7.30;99.90
39525;DHT22;25203;50.754;6.978;2023-12-20T10:49:52;7.30;99.90
39525;DHT22;25203;50.754;6.978;2023-12-20T10:51:54;7.30;99.90
39525;DHT22;25203;50.754;6.978;2023-12-20T10:53:57;7.30;99.90
39525;DHT22;25203;50.754;6.978;2023-12-20T10:55:59;7.30;99.90
39525;DHT22;25203;50.754;6.978;2023-12-20T10:58:01;7.20;99.90
39525;DHT22;25203;50.754;6.978;2023-12-20T11:00:03;7.30;99.90
39525;DHT22;25203;50.754;6.978;2023-12-20T11:02:06;7.30;99.90
39525;DHT22;25203;50.754;6.978;2023-12-20T11:04:09;7.30;99.90
39525;DHT22;25203;50.754;6.978;2023-12-20T11:06:14;7.30;99.90
39525;DHT22;25203;50.754;6.978;2023-12-20T11:08:22;7.40;99.90
39525;DHT22;25203;50.754;6.978;2023-12-20T11:10:31;7.40;99.90
39525;DHT22;25203;50.754;6.978;2023-12-20T11:12:41;7.40;99.90
39525;DHT22;25203;50.754;6.978;2023-12-20T11:14:52;7.40;99.90
39525;DHT22;25203;50.754;6.978;2023-12-20T11:17:07;7.40;99.90
39525;DHT22;25203;50.754;6.978;2023-12-20T11:19:08;7.40;99.90
39525;DHT22;25203;50.754;6.978;2023-12-20T11:21:08;7.40;99.90
39525;DHT22;25203;50.754;6.978;2023-12-20T11:23:11;7.40;99.90
39525;DHT22;25203;50.754;6.978;2023-12-20T11:25:11;7.50;99.90
39525;DHT22;25203;50.754;6.978;2023-12-20T11:27:13;7.50;99.90
39525;DHT22;25203;50.754;6.978;2023-12-20T11:29:33;7.50;99.90
39525;DHT22;25203;50.754;6.978;2023-12-20T11:31:40;7.40;99.90
39525;DHT22;25203;50.754;6.978;2023-12-20T11:33:41;7.40;99.90
39525;DHT22;25203;50.754;6.978;2023-12-20T11:35:42;7.40;99.90
39525;DHT22;25203;50.754;6.978;2023-12-20T11:37:43;7.40;99.90
39525;DHT22;25203;50.754;6.978;2023-12-20T11:39:43;7.40;99.90
39525;DHT22;25203;50.754;6.978;2023-12-20T11:41:44;7.30;99.90
39525;DHT22;25203;50.754;6.978;2023-12-20T11:43:45;7.30;99.90
39525;DHT22;25203;50.754;6.978;2023-12-20T11:45:52;7.30;99.90
39525;DHT22;25203;50.754;6.978;2023-12-20T11:47:53;7.30;99.90
39525;DHT22;25203;50.754;6.978;2023-12-20T11:49:56;7.30;99.90
39525;DHT22;25203;50.754;6.978;2023-12-20T11:51:57;7.40;99.90
39525;DHT22;25203;50.754;6.978;2023-12-20T11:53:57;7.30;99.90
39525;DHT22;25203;50.754;6.978;2023-12-20T11:55:58;7.40;99.90
39525;DHT22;25203;50.754;6.978;2023-12-20T11:57:58;7.40;99.90
39525;DHT22;25203;50.754;6.978;2023-12-20T11:59:59;7.40;99.90
39525;DHT22;25203;50.754;6.978;2023-12-20T12:02:00;7.40;99.90
39525;DHT22;25203;50.754;6.978;2023-12-20T12:04:07;7.50;99.90
39525;DHT22;25203;50.754;6.978;2023-12-20T12:06:07;7.60;99.90
39525;DHT22;25203;50.754;6.978;2023-12-20T12:08:08;7.70;99.90
39525;DHT22;25203;50.754;6.978;2023-12-20T12:10:09;7.70;99.90
39525;DHT22;25203;50.754;6.978;2023-12-20T12:12:10;7.80;99.90
39525;DHT22;25203;50.754;6.978;2023-12-20T12:14:12;7.80;99.90
39525;DHT22;25203;50.754;6.978;2023-12-20T12:16:16;7.80;99.90
39525;DHT22;25203;50.754;6.978;2023-12-20T12:18:17;7.80;99.90
39525;DHT22;25203;50.754;6.978;2023-12-20T12:20:20;7.80;99.90
39525;DHT22;25203;50.754;6.978;2023-12-20T12:22:20;7.80;99.90
39525;DHT22;25203;50.754;6.978;2023-12-20T12:24:27;7.70;99.90
39525;DHT22;25203;50.754;6.978;2023-12-20T12:26:30;7.70;99.90
39525;DHT22;25203;50.754;6.978;2023-12-20T12:28:31;7.70;99.90
39525;DHT22;25203;50.754;6.978;2023-12-20T12:30:33;7.60;99.90
39525;DHT22;25203;50.754;6.978;2023-12-20T12:32:33;7.60;99.90
39525;DHT22;25203;50.754;6.978;2023-12-20T12:34:37;7.60;99.90
39525;DHT22;25203;50.754;6.978;2023-12-20T12:36:37;7.60;99.90
39525;DHT22;25203;50.754;6.978;2023-12-20T12:38:38;7.60;99.90
39525;DHT22;25203;50.754;6.978;2023-12-20T12:40:39;7.60;99.90
39525;DHT22;25203;50.754;6.978;2023-12-20T12:42:40;7.60;99.90
39525;DHT22;25203;50.754;6.978;2023-12-20T12:44:41;7.60;99.90
39525;DHT22;25203;50.754;6.978;2023-12-20T12:46:41;7.60;99.90
39525;DHT22;25203;50.754;6.978;2023-12-20T12:48:42;7.60;99.90
39525;DHT22;25203;50.754;6.978;2023-12-20T12:50:45;7.60;99.90
39525;DHT22;25203;50.754;6.978;2023-12-20T12:52:45;7.50;99.90
39525;DHT22;25203;50.754;6.978;2023-12-20T12:54:46;7.50;99.90
39525;DHT22;25203;50.754;6.978;2023-12-20T12:56:47;7.50;99.90